ARCHIVE OF VALUES – GRAPHIC AND TABLE INTERFACE

Using the pre-set parameters in this form, it is possible to display the air parameter course for a specific time period. The Displayed data type option determines whether average values per hour or another time period will be displayed. The Number of displayed data option affects the graph density; e.g. when hourly averages and 120 data points are set, 5 days (5 x 24 hours) will be displayed.

As standard, the current date is set as the end of the displayed period. However, older data can be displayed by entering the desired date. The other two options allow the displayed value to be set. The main graph is a bar graph while the auxiliary graph is a line graph. When a new request is entered, the graph will be re-plotted by pressing the button.

Displayed Data Selection Settings
Displayed data type
Number of displayed data (data points)
End date of the displayed data (year-month-day)
Main graph – displayed physical quality
Auxiliary graph – displayed physical quality
New graph settings
Graf vybraných hodnot z databáze

The graphs include measured data starting from July 2013. Therefore, it is possible to enter End date of the displayed from 6.7.2013 up to the present date in the setting form. If a different date or the wrong date format is entered, the start and end of the permissible period will be displayed.


Event dateAverage per hourTemperature [°C]Relative humidity [%]
2021-05-17 6 11.38 88.79
2021-05-17 7 10.57 96.68
2021-05-17 8 10.8 97.42
2021-05-17 9 10.93 97.8
2021-05-17 10 11.7 95.61
2021-05-17 11 12.23 93.58
2021-05-17 12 12.34 92.86
2021-05-17 13 11.97 93.04
2021-05-17 14 11.59 94.51
2021-05-17 15 11.58 92.5
2021-05-17 16 11.74 94.24
2021-05-17 17 11.83 95.13
2021-05-17 18 11.81 93.79
2021-05-17 19 11.42 94.47
2021-05-17 20 10.96 96.13
2021-05-17 21 10.32 97.93
2021-05-17 22 9.92 98.33
2021-05-17 23 9.68 98.78
2021-05-17 24 9.56 99.17
2021-05-18 1 9.55 99.45
2021-05-18 2 9.45 99.56
2021-05-18 3 9.39 99.68
2021-05-18 4 9.43 99.79
2021-05-18 5 9.25 99.71
2021-05-18 6 9.06 99.34
2021-05-18 7 8.93 98.4
2021-05-18 8 9.34 94.58
2021-05-18 9 10.19 89.1
2021-05-18 10 11.21 84.49
2021-05-18 11 13.25 74.85
2021-05-18 12 14.45 66.93
2021-05-18 13 15.45 63.3
2021-05-18 14 16.44 61.93
2021-05-18 15 17.22 60.4
2021-05-18 16 17.78 54.33
2021-05-18 17 14.48 68.55
2021-05-18 18 14.71 70.93
2021-05-18 19 14.9 66.97
2021-05-18 20 14.08 73.95
2021-05-18 21 13.02 80.05
2021-05-18 22 11.68 86.28
2021-05-18 23 10.38 92.58
2021-05-18 24 9.19 95.07
2021-05-19 1 8.28 96.18
2021-05-19 2 7.47 96.73
2021-05-19 3 6.68 97.62
2021-05-19 4 6.04 98.1
2021-05-19 5 5.81 98.36